sensor_id;sensor_type;location;lat;lon;timestamp;P1;durP1;ratioP1;P2;durP2;ratioP2
20170;SDS011;10245;51.344;6.620;2022-10-31T00:00:02;22.08;;;13.27;;
20170;SDS011;10245;51.344;6.620;2022-10-31T00:02:31;19.60;;;11.95;;
20170;SDS011;10245;51.344;6.620;2022-10-31T00:04:55;24.13;;;14.32;;
20170;SDS011;10245;51.344;6.620;2022-10-31T00:07:18;20.95;;;13.90;;
20170;SDS011;10245;51.344;6.620;2022-10-31T00:09:43;18.58;;;12.25;;
20170;SDS011;10245;51.344;6.620;2022-10-31T00:12:06;22.42;;;12.10;;
20170;SDS011;10245;51.344;6.620;2022-10-31T00:14:29;19.40;;;11.88;;
20170;SDS011;10245;51.344;6.620;2022-10-31T00:16:53;18.80;;;12.02;;
20170;SDS011;10245;51.344;6.620;2022-10-31T00:19:16;19.88;;;12.98;;
20170;SDS011;10245;51.344;6.620;2022-10-31T00:21:39;28.77;;;14.82;;
20170;SDS011;10245;51.344;6.620;2022-10-31T00:24:03;28.08;;;14.10;;
20170;SDS011;10245;51.344;6.620;2022-10-31T00:26:29;20.25;;;12.80;;
20170;SDS011;10245;51.344;6.620;2022-10-31T00:28:54;26.33;;;14.60;;
20170;SDS011;10245;51.344;6.620;2022-10-31T00:31:17;20.25;;;12.63;;
20170;SDS011;10245;51.344;6.620;2022-10-31T00:33:41;19.92;;;12.57;;
20170;SDS011;10245;51.344;6.620;2022-10-31T00:36:05;17.30;;;11.48;;
20170;SDS011;10245;51.344;6.620;2022-10-31T00:38:34;23.25;;;13.95;;
20170;SDS011;10245;51.344;6.620;2022-10-31T00:40:57;24.45;;;12.68;;
20170;SDS011;10245;51.344;6.620;2022-10-31T00:43:21;25.95;;;14.73;;
20170;SDS011;10245;51.344;6.620;2022-10-31T00:45:45;18.67;;;12.57;;
20170;SDS011;10245;51.344;6.620;2022-10-31T00:48:09;16.63;;;12.00;;
20170;SDS011;10245;51.344;6.620;2022-10-31T00:50:32;23.63;;;13.40;;
20170;SDS011;10245;51.344;6.620;2022-10-31T00:52:56;24.70;;;13.13;;
20170;SDS011;10245;51.344;6.620;2022-10-31T00:55:19;19.05;;;12.88;;
20170;SDS011;10245;51.344;6.620;2022-10-31T00:57:45;21.23;;;13.50;;
20170;SDS011;10245;51.344;6.620;2022-10-31T01:00:11;24.80;;;13.30;;
20170;SDS011;10245;51.344;6.620;2022-10-31T01:02:35;21.05;;;12.20;;
20170;SDS011;10245;51.344;6.620;2022-10-31T01:04:59;20.77;;;12.68;;
20170;SDS011;10245;51.344;6.620;2022-10-31T01:07:23;25.30;;;14.30;;
20170;SDS011;10245;51.344;6.620;2022-10-31T01:09:46;24.90;;;14.88;;
20170;SDS011;10245;51.344;6.620;2022-10-31T01:12:09;20.00;;;13.45;;
20170;SDS011;10245;51.344;6.620;2022-10-31T01:14:33;17.63;;;12.52;;
20170;SDS011;10245;51.344;6.620;2022-10-31T01:16:58;16.33;;;11.38;;
20170;SDS011;10245;51.344;6.620;2022-10-31T01:19:21;22.65;;;13.40;;
20170;SDS011;10245;51.344;6.620;2022-10-31T01:21:44;18.63;;;11.93;;
20170;SDS011;10245;51.344;6.620;2022-10-31T01:24:08;25.67;;;13.05;;
20170;SDS011;10245;51.344;6.620;2022-10-31T01:26:32;23.10;;;12.77;;
20170;SDS011;10245;51.344;6.620;2022-10-31T01:28:56;19.77;;;12.70;;
20170;SDS011;10245;51.344;6.620;2022-10-31T01:31:23;19.13;;;12.00;;
20170;SDS011;10245;51.344;6.620;2022-10-31T01:33:50;20.77;;;13.13;;
20170;SDS011;10245;51.344;6.620;2022-10-31T01:36:15;17.50;;;11.40;;
20170;SDS011;10245;51.344;6.620;2022-10-31T01:38:44;19.35;;;13.18;;
20170;SDS011;10245;51.344;6.620;2022-10-31T01:41:08;22.50;;;13.13;;
20170;SDS011;10245;51.344;6.620;2022-10-31T01:43:43;23.55;;;13.02;;
20170;SDS011;10245;51.344;6.620;2022-10-31T01:46:09;16.05;;;10.93;;
20170;SDS011;10245;51.344;6.620;2022-10-31T01:48:34;19.95;;;12.23;;
20170;SDS011;10245;51.344;6.620;2022-10-31T01:50:59;18.05;;;12.57;;
20170;SDS011;10245;51.344;6.620;2022-10-31T01:53:22;16.02;;;12.15;;
20170;SDS011;10245;51.344;6.620;2022-10-31T01:55:47;18.10;;;12.93;;
20170;SDS011;10245;51.344;6.620;2022-10-31T01:58:11;22.83;;;14.55;;
20170;SDS011;10245;51.344;6.620;2022-10-31T02:00:43;25.45;;;12.95;;
20170;SDS011;10245;51.344;6.620;2022-10-31T02:03:09;22.85;;;13.30;;
20170;SDS011;10245;51.344;6.620;2022-10-31T02:05:33;23.23;;;13.48;;
20170;SDS011;10245;51.344;6.620;2022-10-31T02:08:00;19.27;;;12.98;;
20170;SDS011;10245;51.344;6.620;2022-10-31T02:10:28;22.23;;;13.43;;
20170;SDS011;10245;51.344;6.620;2022-10-31T02:12:53;23.38;;;14.45;;
20170;SDS011;10245;51.344;6.620;2022-10-31T02:15:21;21.55;;;14.70;;
20170;SDS011;10245;51.344;6.620;2022-10-31T02:17:44;22.45;;;15.20;;
20170;SDS011;10245;51.344;6.620;2022-10-31T02:20:11;23.20;;;14.60;;
20170;SDS011;10245;51.344;6.620;2022-10-31T02:22:40;23.50;;;12.63;;
20170;SDS011;10245;51.344;6.620;2022-10-31T02:25:59;24.95;;;14.50;;
20170;SDS011;10245;51.344;6.620;2022-10-31T02:31:41;18.60;;;12.80;;
20170;SDS011;10245;51.344;6.620;2022-10-31T02:34:11;20.38;;;12.40;;
20170;SDS011;10245;51.344;6.620;2022-10-31T02:36:43;18.67;;;12.32;;
20170;SDS011;10245;51.344;6.620;2022-10-31T02:39:15;23.00;;;12.75;;
20170;SDS011;10245;51.344;6.620;2022-10-31T02:41:48;20.23;;;12.98;;
20170;SDS011;10245;51.344;6.620;2022-10-31T02:44:26;21.38;;;12.10;;
20170;SDS011;10245;51.344;6.620;2022-10-31T02:46:58;23.30;;;13.60;;
20170;SDS011;10245;51.344;6.620;2022-10-31T02:49:27;17.13;;;11.65;;
20170;SDS011;10245;51.344;6.620;2022-10-31T02:51:58;17.50;;;11.63;;
20170;SDS011;10245;51.344;6.620;2022-10-31T02:54:22;19.42;;;11.57;;
20170;SDS011;10245;51.344;6.620;2022-10-31T02:56:47;19.65;;;11.43;;
20170;SDS011;10245;51.344;6.620;2022-10-31T02:59:14;18.00;;;12.57;;
20170;SDS011;10245;51.344;6.620;2022-10-31T03:01:43;21.05;;;12.13;;
20170;SDS011;10245;51.344;6.620;2022-10-31T03:07:26;22.08;;;12.35;;
20170;SDS011;10245;51.344;6.620;2022-10-31T03:10:01;17.05;;;11.95;;
20170;SDS011;10245;51.344;6.620;2022-10-31T03:12:34;19.90;;;11.27;;
20170;SDS011;10245;51.344;6.620;2022-10-31T03:15:12;17.92;;;11.75;;
20170;SDS011;10245;51.344;6.620;2022-10-31T03:17:48;19.10;;;11.68;;
20170;SDS011;10245;51.344;6.620;2022-10-31T03:20:19;19.13;;;13.20;;
20170;SDS011;10245;51.344;6.620;2022-10-31T03:22:49;18.80;;;12.57;;
20170;SDS011;10245;51.344;6.620;2022-10-31T03:25:16;18.17;;;12.43;;
20170;SDS011;10245;51.344;6.620;2022-10-31T03:27:40;16.73;;;11.93;;
20170;SDS011;10245;51.344;6.620;2022-10-31T03:30:07;21.02;;;13.45;;
20170;SDS011;10245;51.344;6.620;2022-10-31T03:32:47;19.20;;;11.85;;
20170;SDS011;10245;51.344;6.620;2022-10-31T03:35:16;27.63;;;12.20;;
20170;SDS011;10245;51.344;6.620;2022-10-31T03:37:43;21.38;;;13.52;;
20170;SDS011;10245;51.344;6.620;2022-10-31T03:40:10;24.23;;;15.30;;
20170;SDS011;10245;51.344;6.620;2022-10-31T03:42:37;20.98;;;13.35;;
20170;SDS011;10245;51.344;6.620;2022-10-31T03:45:04;19.02;;;11.93;;
20170;SDS011;10245;51.344;6.620;2022-10-31T03:47:34;19.38;;;11.95;;
20170;SDS011;10245;51.344;6.620;2022-10-31T03:50:01;16.80;;;11.88;;
20170;SDS011;10245;51.344;6.620;2022-10-31T03:52:26;23.58;;;13.90;;
20170;SDS011;10245;51.344;6.620;2022-10-31T03:54:55;21.70;;;13.70;;
20170;SDS011;10245;51.344;6.620;2022-10-31T03:57:24;19.55;;;13.38;;
20170;SDS011;10245;51.344;6.620;2022-10-31T03:59:53;19.60;;;12.70;;
20170;SDS011;10245;51.344;6.620;2022-10-31T04:02:22;14.23;;;11.25;;
20170;SDS011;10245;51.344;6.620;2022-10-31T04:04:52;22.83;;;12.70;;
20170;SDS011;10245;51.344;6.620;2022-10-31T04:07:17;22.63;;;13.45;;
20170;SDS011;10245;51.344;6.620;2022-10-31T04:09:43;19.80;;;12.10;;
20170;SDS011;10245;51.344;6.620;2022-10-31T04:12:09;19.27;;;12.75;;
20170;SDS011;10245;51.344;6.620;2022-10-31T04:14:59;20.83;;;13.38;;
20170;SDS011;10245;51.344;6.620;2022-10-31T04:17:29;20.35;;;12.50;;
20170;SDS011;10245;51.344;6.620;2022-10-31T04:19:58;20.85;;;12.45;;
20170;SDS011;10245;51.344;6.620;2022-10-31T04:22:24;26.73;;;15.50;;
20170;SDS011;10245;51.344;6.620;2022-10-31T04:24:47;24.35;;;16.25;;
20170;SDS011;10245;51.344;6.620;2022-10-31T04:27:12;19.58;;;13.13;;
20170;SDS011;10245;51.344;6.620;2022-10-31T04:29:35;21.40;;;14.27;;
20170;SDS011;10245;51.344;6.620;2022-10-31T04:31:59;19.15;;;12.93;;
20170;SDS011;10245;51.344;6.620;2022-10-31T04:34:22;23.45;;;13.93;;
20170;SDS011;10245;51.344;6.620;2022-10-31T04:36:46;22.50;;;13.57;;
20170;SDS011;10245;51.344;6.620;2022-10-31T04:39:12;21.98;;;13.30;;
20170;SDS011;10245;51.344;6.620;2022-10-31T04:41:42;25.33;;;14.90;;
20170;SDS011;10245;51.344;6.620;2022-10-31T04:44:09;20.92;;;14.10;;
20170;SDS011;10245;51.344;6.620;2022-10-31T04:46:32;23.58;;;14.07;;
20170;SDS011;10245;51.344;6.620;2022-10-31T04:48:56;18.70;;;13.02;;
20170;SDS011;10245;51.344;6.620;2022-10-31T04:51:20;17.15;;;12.85;;
20170;SDS011;10245;51.344;6.620;2022-10-31T04:53:43;22.73;;;13.55;;
20170;SDS011;10245;51.344;6.620;2022-10-31T04:56:30;18.33;;;12.48;;
20170;SDS011;10245;51.344;6.620;2022-10-31T04:59:04;16.65;;;11.95;;
20170;SDS011;10245;51.344;6.620;2022-10-31T05:01:47;19.10;;;12.45;;
20170;SDS011;10245;51.344;6.620;2022-10-31T05:04:15;21.55;;;13.02;;
20170;SDS011;10245;51.344;6.620;2022-10-31T05:06:39;23.23;;;14.32;;
20170;SDS011;10245;51.344;6.620;2022-10-31T05:09:02;27.70;;;13.55;;
20170;SDS011;10245;51.344;6.620;2022-10-31T05:11:26;16.55;;;11.90;;
20170;SDS011;10245;51.344;6.620;2022-10-31T05:13:57;19.40;;;12.43;;
20170;SDS011;10245;51.344;6.620;2022-10-31T05:16:44;15.23;;;11.38;;
20170;SDS011;10245;51.344;6.620;2022-10-31T05:19:39;20.42;;;11.57;;
20170;SDS011;10245;51.344;6.620;2022-10-31T05:22:25;22.58;;;16.05;;
20170;SDS011;10245;51.344;6.620;2022-10-31T05:24:48;21.48;;;13.50;;
20170;SDS011;10245;51.344;6.620;2022-10-31T05:27:11;15.68;;;11.82;;
20170;SDS011;10245;51.344;6.620;2022-10-31T05:29:37;17.92;;;11.98;;
20170;SDS011;10245;51.344;6.620;2022-10-31T05:32:00;17.73;;;12.30;;
20170;SDS011;10245;51.344;6.620;2022-10-31T05:34:42;19.05;;;12.32;;
20170;SDS011;10245;51.344;6.620;2022-10-31T05:37:21;19.45;;;11.65;;
20170;SDS011;10245;51.344;6.620;2022-10-31T05:39:45;18.10;;;12.05;;
20170;SDS011;10245;51.344;6.620;2022-10-31T05:42:10;19.42;;;12.32;;
20170;SDS011;10245;51.344;6.620;2022-10-31T05:44:34;20.45;;;12.95;;
20170;SDS011;10245;51.344;6.620;2022-10-31T05:47:09;17.38;;;11.73;;
20170;SDS011;10245;51.344;6.620;2022-10-31T05:49:51;17.83;;;10.75;;
20170;SDS011;10245;51.344;6.620;2022-10-31T05:52:37;18.63;;;12.05;;
20170;SDS011;10245;51.344;6.620;2022-10-31T05:55:20;18.30;;;11.63;;
20170;SDS011;10245;51.344;6.620;2022-10-31T05:57:57;19.38;;;11.48;;
20170;SDS011;10245;51.344;6.620;2022-10-31T06:00:22;19.60;;;11.23;;
20170;SDS011;10245;51.344;6.620;2022-10-31T06:02:48;20.05;;;12.00;;
20170;SDS011;10245;51.344;6.620;2022-10-31T06:05:31;21.27;;;11.80;;
20170;SDS011;10245;51.344;6.620;2022-10-31T06:07:55;16.30;;;11.27;;
20170;SDS011;10245;51.344;6.620;2022-10-31T06:10:19;18.05;;;12.00;;
20170;SDS011;10245;51.344;6.620;2022-10-31T06:12:47;17.42;;;11.90;;
20170;SDS011;10245;51.344;6.620;2022-10-31T06:15:16;18.13;;;11.20;;
20170;SDS011;10245;51.344;6.620;2022-10-31T06:17:44;17.73;;;11.88;;
20170;SDS011;10245;51.344;6.620;2022-10-31T06:20:18;15.80;;;11.27;;
20170;SDS011;10245;51.344;6.620;2022-10-31T06:22:50;20.20;;;12.32;;
20170;SDS011;10245;51.344;6.620;2022-10-31T06:25:14;19.60;;;11.77;;
20170;SDS011;10245;51.344;6.620;2022-10-31T06:27:42;18.60;;;12.05;;
20170;SDS011;10245;51.344;6.620;2022-10-31T06:30:08;22.45;;;13.10;;
20170;SDS011;10245;51.344;6.620;2022-10-31T06:32:33;23.85;;;13.80;;
20170;SDS011;10245;51.344;6.620;2022-10-31T06:34:56;19.40;;;12.48;;
20170;SDS011;10245;51.344;6.620;2022-10-31T06:37:21;17.75;;;11.20;;
20170;SDS011;10245;51.344;6.620;2022-10-31T06:39:46;23.60;;;12.52;;
20170;SDS011;10245;51.344;6.620;2022-10-31T06:42:10;23.05;;;13.93;;
20170;SDS011;10245;51.344;6.620;2022-10-31T06:44:33;20.38;;;14.52;;
20170;SDS011;10245;51.344;6.620;2022-10-31T06:47:17;18.70;;;14.40;;
20170;SDS011;10245;51.344;6.620;2022-10-31T06:49:57;26.60;;;14.95;;
20170;SDS011;10245;51.344;6.620;2022-10-31T06:52:22;23.75;;;14.60;;
20170;SDS011;10245;51.344;6.620;2022-10-31T06:54:46;22.02;;;13.63;;
20170;SDS011;10245;51.344;6.620;2022-10-31T06:57:10;20.23;;;13.73;;
20170;SDS011;10245;51.344;6.620;2022-10-31T06:59:33;21.55;;;13.18;;
20170;SDS011;10245;51.344;6.620;2022-10-31T07:02:02;19.35;;;14.23;;
20170;SDS011;10245;51.344;6.620;2022-10-31T07:04:27;23.33;;;14.18;;
20170;SDS011;10245;51.344;6.620;2022-10-31T07:06:51;19.48;;;13.35;;
20170;SDS011;10245;51.344;6.620;2022-10-31T07:09:16;18.65;;;12.48;;
20170;SDS011;10245;51.344;6.620;2022-10-31T07:11:40;23.80;;;13.40;;
20170;SDS011;10245;51.344;6.620;2022-10-31T07:14:04;21.85;;;13.35;;
20170;SDS011;10245;51.344;6.620;2022-10-31T07:16:27;20.25;;;12.90;;
20170;SDS011;10245;51.344;6.620;2022-10-31T07:18:51;17.27;;;13.02;;
20170;SDS011;10245;51.344;6.620;2022-10-31T07:21:14;21.23;;;14.40;;
20170;SDS011;10245;51.344;6.620;2022-10-31T07:23:38;22.63;;;13.85;;
20170;SDS011;10245;51.344;6.620;2022-10-31T07:26:25;18.38;;;13.32;;
20170;SDS011;10245;51.344;6.620;2022-10-31T07:28:49;17.80;;;12.38;;
20170;SDS011;10245;51.344;6.620;2022-10-31T07:31:15;19.40;;;11.65;;
20170;SDS011;10245;51.344;6.620;2022-10-31T07:33:39;20.25;;;12.02;;
20170;SDS011;10245;51.344;6.620;2022-10-31T07:36:34;23.63;;;12.20;;
20170;SDS011;10245;51.344;6.620;2022-10-31T07:38:58;17.38;;;11.32;;
20170;SDS011;10245;51.344;6.620;2022-10-31T07:41:26;27.85;;;14.93;;
20170;SDS011;10245;51.344;6.620;2022-10-31T07:43:49;19.38;;;12.63;;
20170;SDS011;10245;51.344;6.620;2022-10-31T07:46:14;20.05;;;12.63;;
20170;SDS011;10245;51.344;6.620;2022-10-31T07:49:09;20.08;;;11.10;;
20170;SDS011;10245;51.344;6.620;2022-10-31T07:51:55;20.13;;;11.90;;
20170;SDS011;10245;51.344;6.620;2022-10-31T07:54:27;18.92;;;13.15;;
20170;SDS011;10245;51.344;6.620;2022-10-31T07:56:52;20.05;;;11.93;;
20170;SDS011;10245;51.344;6.620;2022-10-31T07:59:16;20.50;;;12.10;;
20170;SDS011;10245;51.344;6.620;2022-10-31T08:01:42;24.92;;;12.70;;
20170;SDS011;10245;51.344;6.620;2022-10-31T08:04:24;25.90;;;13.93;;
20170;SDS011;10245;51.344;6.620;2022-10-31T08:07:05;24.10;;;13.02;;
20170;SDS011;10245;51.344;6.620;2022-10-31T08:09:31;24.23;;;13.73;;
20170;SDS011;10245;51.344;6.620;2022-10-31T08:12:00;23.90;;;13.68;;
20170;SDS011;10245;51.344;6.620;2022-10-31T08:14:25;22.25;;;14.50;;
20170;SDS011;10245;51.344;6.620;2022-10-31T08:16:49;21.70;;;13.88;;
20170;SDS011;10245;51.344;6.620;2022-10-31T08:19:12;22.67;;;14.98;;
20170;SDS011;10245;51.344;6.620;2022-10-31T08:21:37;23.17;;;14.07;;
20170;SDS011;10245;51.344;6.620;2022-10-31T08:24:02;20.70;;;14.32;;
20170;SDS011;10245;51.344;6.620;2022-10-31T08:26:27;25.27;;;14.40;;
20170;SDS011;10245;51.344;6.620;2022-10-31T08:28:51;21.73;;;13.50;;
20170;SDS011;10245;51.344;6.620;2022-10-31T08:31:17;26.60;;;14.82;;
20170;SDS011;10245;51.344;6.620;2022-10-31T08:33:40;20.83;;;13.85;;
20170;SDS011;10245;51.344;6.620;2022-10-31T08:36:13;25.90;;;14.52;;
20170;SDS011;10245;51.344;6.620;2022-10-31T08:38:55;24.60;;;14.63;;
20170;SDS011;10245;51.344;6.620;2022-10-31T08:41:23;23.30;;;15.20;;
20170;SDS011;10245;51.344;6.620;2022-10-31T08:43:46;25.70;;;14.95;;
20170;SDS011;10245;51.344;6.620;2022-10-31T08:46:11;24.10;;;15.10;;
20170;SDS011;10245;51.344;6.620;2022-10-31T08:48:36;29.42;;;16.88;;
20170;SDS011;10245;51.344;6.620;2022-10-31T08:51:00;30.52;;;15.40;;
20170;SDS011;10245;51.344;6.620;2022-10-31T08:53:24;27.05;;;15.25;;
20170;SDS011;10245;51.344;6.620;2022-10-31T08:56:05;25.98;;;15.60;;
20170;SDS011;10245;51.344;6.620;2022-10-31T08:58:30;22.25;;;14.20;;
20170;SDS011;10245;51.344;6.620;2022-10-31T09:01:00;27.27;;;16.02;;
20170;SDS011;10245;51.344;6.620;2022-10-31T09:03:26;22.00;;;14.93;;
20170;SDS011;10245;51.344;6.620;2022-10-31T09:05:54;22.65;;;14.40;;
20170;SDS011;10245;51.344;6.620;2022-10-31T09:08:21;27.00;;;16.02;;
20170;SDS011;10245;51.344;6.620;2022-10-31T09:10:45;27.85;;;16.65;;
20170;SDS011;10245;51.344;6.620;2022-10-31T09:13:14;28.30;;;15.20;;
20170;SDS011;10245;51.344;6.620;2022-10-31T09:16:05;23.95;;;15.35;;
20170;SDS011;10245;51.344;6.620;2022-10-31T09:18:31;26.95;;;14.90;;
20170;SDS011;10245;51.344;6.620;2022-10-31T09:20:56;29.63;;;15.52;;
20170;SDS011;10245;51.344;6.620;2022-10-31T09:23:23;23.95;;;15.15;;
20170;SDS011;10245;51.344;6.620;2022-10-31T09:25:47;25.25;;;15.73;;
20170;SDS011;10245;51.344;6.620;2022-10-31T09:28:24;29.13;;;15.02;;
20170;SDS011;10245;51.344;6.620;2022-10-31T09:30:52;24.63;;;14.80;;
20170;SDS011;10245;51.344;6.620;2022-10-31T09:33:36;29.80;;;15.70;;
20170;SDS011;10245;51.344;6.620;2022-10-31T09:36:22;26.98;;;15.60;;
20170;SDS011;10245;51.344;6.620;2022-10-31T09:38:46;29.63;;;16.70;;
20170;SDS011;10245;51.344;6.620;2022-10-31T09:41:14;29.50;;;16.33;;
20170;SDS011;10245;51.344;6.620;2022-10-31T09:43:46;30.75;;;15.20;;
20170;SDS011;10245;51.344;6.620;2022-10-31T09:46:21;27.27;;;16.25;;
20170;SDS011;10245;51.344;6.620;2022-10-31T09:48:59;26.17;;;15.85;;
20170;SDS011;10245;51.344;6.620;2022-10-31T09:51:53;30.15;;;16.13;;
20170;SDS011;10245;51.344;6.620;2022-10-31T09:54:26;31.20;;;16.02;;
20170;SDS011;10245;51.344;6.620;2022-10-31T09:56:55;28.05;;;15.05;;
20170;SDS011;10245;51.344;6.620;2022-10-31T09:59:24;28.38;;;15.98;;
20170;SDS011;10245;51.344;6.620;2022-10-31T10:01:54;26.83;;;15.38;;
20170;SDS011;10245;51.344;6.620;2022-10-31T10:04:32;23.75;;;14.52;;
20170;SDS011;10245;51.344;6.620;2022-10-31T10:07:22;26.98;;;15.75;;
20170;SDS011;10245;51.344;6.620;2022-10-31T10:10:16;25.77;;;15.90;;
20170;SDS011;10245;51.344;6.620;2022-10-31T10:16:09;26.67;;;14.88;;
20170;SDS011;10245;51.344;6.620;2022-10-31T10:18:45;23.15;;;14.45;;
20170;SDS011;10245;51.344;6.620;2022-10-31T10:21:25;24.85;;;15.30;;
20170;SDS011;10245;51.344;6.620;2022-10-31T10:24:03;23.08;;;14.70;;
20170;SDS011;10245;51.344;6.620;2022-10-31T10:26:40;24.77;;;15.23;;
20170;SDS011;10245;51.344;6.620;2022-10-31T10:29:16;28.10;;;14.07;;
20170;SDS011;10245;51.344;6.620;2022-10-31T10:31:50;30.83;;;14.25;;
20170;SDS011;10245;51.344;6.620;2022-10-31T10:34:16;24.60;;;14.18;;
20170;SDS011;10245;51.344;6.620;2022-10-31T10:36:46;33.47;;;15.10;;
20170;SDS011;10245;51.344;6.620;2022-10-31T10:39:15;28.65;;;14.35;;
20170;SDS011;10245;51.344;6.620;2022-10-31T10:41:43;25.92;;;15.43;;
20170;SDS011;10245;51.344;6.620;2022-10-31T10:44:24;28.70;;;15.18;;
20170;SDS011;10245;51.344;6.620;2022-10-31T10:47:05;26.98;;;16.25;;
20170;SDS011;10245;51.344;6.620;2022-10-31T10:49:48;28.25;;;15.95;;
20170;SDS011;10245;51.344;6.620;2022-10-31T10:52:17;28.17;;;15.00;;
20170;SDS011;10245;51.344;6.620;2022-10-31T10:55:12;23.25;;;14.93;;
20170;SDS011;10245;51.344;6.620;2022-10-31T10:57:49;28.17;;;14.68;;
20170;SDS011;10245;51.344;6.620;2022-10-31T11:00:19;21.98;;;14.30;;
20170;SDS011;10245;51.344;6.620;2022-10-31T11:02:44;26.80;;;14.07;;
20170;SDS011;10245;51.344;6.620;2022-10-31T11:05:13;30.00;;;16.55;;
20170;SDS011;10245;51.344;6.620;2022-10-31T11:07:47;39.83;;;18.75;;
20170;SDS011;10245;51.344;6.620;2022-10-31T11:10:11;31.27;;;19.25;;
20170;SDS011;10245;51.344;6.620;2022-10-31T11:12:36;29.27;;;16.48;;
20170;SDS011;10245;51.344;6.620;2022-10-31T11:15:00;32.03;;;16.35;;
20170;SDS011;10245;51.344;6.620;2022-10-31T11:17:30;27.35;;;14.73;;
20170;SDS011;10245;51.344;6.620;2022-10-31T11:19:59;27.15;;;14.25;;
20170;SDS011;10245;51.344;6.620;2022-10-31T11:22:25;28.27;;;14.43;;
20170;SDS011;10245;51.344;6.620;2022-10-31T11:24:50;24.38;;;13.40;;
20170;SDS011;10245;51.344;6.620;2022-10-31T11:27:15;25.05;;;13.35;;
20170;SDS011;10245;51.344;6.620;2022-10-31T11:29:42;23.33;;;13.10;;
20170;SDS011;10245;51.344;6.620;2022-10-31T11:32:08;23.63;;;12.38;;
20170;SDS011;10245;51.344;6.620;2022-10-31T11:34:42;23.45;;;13.65;;
20170;SDS011;10245;51.344;6.620;2022-10-31T11:37:09;21.23;;;12.25;;
20170;SDS011;10245;51.344;6.620;2022-10-31T11:39:39;20.45;;;11.98;;
20170;SDS011;10245;51.344;6.620;2022-10-31T11:42:07;24.17;;;13.20;;
20170;SDS011;10245;51.344;6.620;2022-10-31T11:44:30;22.92;;;11.85;;
20170;SDS011;10245;51.344;6.620;2022-10-31T11:46:55;19.88;;;11.98;;
20170;SDS011;10245;51.344;6.620;2022-10-31T11:49:23;17.25;;;11.18;;
20170;SDS011;10245;51.344;6.620;2022-10-31T11:51:53;19.83;;;10.32;;
20170;SDS011;10245;51.344;6.620;2022-10-31T11:54:20;22.25;;;11.27;;
20170;SDS011;10245;51.344;6.620;2022-10-31T11:56:46;21.08;;;10.27;;
20170;SDS011;10245;51.344;6.620;2022-10-31T11:59:21;21.60;;;10.95;;
20170;SDS011;10245;51.344;6.620;2022-10-31T12:01:50;17.08;;;10.32;;
20170;SDS011;10245;51.344;6.620;2022-10-31T12:04:15;22.50;;;9.65;;
20170;SDS011;10245;51.344;6.620;2022-10-31T12:06:40;21.63;;;9.60;;
20170;SDS011;10245;51.344;6.620;2022-10-31T12:09:10;16.08;;;9.45;;
20170;SDS011;10245;51.344;6.620;2022-10-31T12:11:45;13.65;;;9.30;;
20170;SDS011;10245;51.344;6.620;2022-10-31T12:14:30;16.92;;;9.52;;
20170;SDS011;10245;51.344;6.620;2022-10-31T12:17:00;21.17;;;9.25;;
20170;SDS011;10245;51.344;6.620;2022-10-31T12:19:35;19.27;;;9.30;;
20170;SDS011;10245;51.344;6.620;2022-10-31T12:22:06;17.80;;;8.27;;
20170;SDS011;10245;51.344;6.620;2022-10-31T12:24:45;12.95;;;8.32;;
20170;SDS011;10245;51.344;6.620;2022-10-31T12:27:46;18.73;;;9.65;;
20170;SDS011;10245;51.344;6.620;2022-10-31T12:30:49;19.25;;;9.20;;
20170;SDS011;10245;51.344;6.620;2022-10-31T12:33:28;15.93;;;8.63;;
20170;SDS011;10245;51.344;6.620;2022-10-31T12:36:12;17.48;;;8.43;;
20170;SDS011;10245;51.344;6.620;2022-10-31T12:38:59;19.40;;;8.75;;
20170;SDS011;10245;51.344;6.620;2022-10-31T12:41:42;16.90;;;8.20;;
20170;SDS011;10245;51.344;6.620;2022-10-31T12:44:12;14.27;;;7.97;;
20170;SDS011;10245;51.344;6.620;2022-10-31T12:46:58;20.98;;;8.93;;
20170;SDS011;10245;51.344;6.620;2022-10-31T12:49:40;16.08;;;8.65;;
20170;SDS011;10245;51.344;6.620;2022-10-31T12:52:19;16.35;;;8.25;;
20170;SDS011;10245;51.344;6.620;2022-10-31T12:55:00;18.48;;;8.00;;
20170;SDS011;10245;51.344;6.620;2022-10-31T12:57:35;16.75;;;7.55;;
20170;SDS011;10245;51.344;6.620;2022-10-31T13:00:05;15.82;;;7.80;;
20170;SDS011;10245;51.344;6.620;2022-10-31T13:02:39;17.70;;;7.50;;
20170;SDS011;10245;51.344;6.620;2022-10-31T13:05:12;14.68;;;7.60;;
20170;SDS011;10245;51.344;6.620;2022-10-31T13:07:41;12.85;;;7.53;;
20170;SDS011;10245;51.344;6.620;2022-10-31T13:10:13;17.02;;;7.60;;
20170;SDS011;10245;51.344;6.620;2022-10-31T13:12:42;15.18;;;7.10;;
20170;SDS011;10245;51.344;6.620;2022-10-31T13:15:11;15.93;;;7.50;;
20170;SDS011;10245;51.344;6.620;2022-10-31T13:17:43;17.65;;;7.85;;
20170;SDS011;10245;51.344;6.620;2022-10-31T13:20:14;14.80;;;6.95;;
20170;SDS011;10245;51.344;6.620;2022-10-31T13:22:44;21.35;;;7.15;;
20170;SDS011;10245;51.344;6.620;2022-10-31T13:25:12;12.27;;;6.75;;
20170;SDS011;10245;51.344;6.620;2022-10-31T13:27:43;17.52;;;7.13;;
20170;SDS011;10245;51.344;6.620;2022-10-31T13:30:13;18.33;;;6.95;;
20170;SDS011;10245;51.344;6.620;2022-10-31T13:32:40;15.27;;;6.50;;
20170;SDS011;10245;51.344;6.620;2022-10-31T13:35:12;14.25;;;6.45;;
20170;SDS011;10245;51.344;6.620;2022-10-31T13:37:44;12.32;;;5.95;;
20170;SDS011;10245;51.344;6.620;2022-10-31T13:40:19;12.40;;;6.25;;
20170;SDS011;10245;51.344;6.620;2022-10-31T13:42:56;11.57;;;6.05;;
20170;SDS011;10245;51.344;6.620;2022-10-31T13:45:25;14.10;;;5.97;;
20170;SDS011;10245;51.344;6.620;2022-10-31T13:47:58;10.68;;;4.88;;
20170;SDS011;10245;51.344;6.620;2022-10-31T13:50:24;13.77;;;5.13;;
20170;SDS011;10245;51.344;6.620;2022-10-31T13:52:49;12.13;;;5.55;;
20170;SDS011;10245;51.344;6.620;2022-10-31T13:57:59;11.95;;;4.97;;
20170;SDS011;10245;51.344;6.620;2022-10-31T14:00:23;14.23;;;5.63;;
20170;SDS011;10245;51.344;6.620;2022-10-31T14:02:49;9.73;;;5.40;;
20170;SDS011;10245;51.344;6.620;2022-10-31T14:05:21;15.77;;;5.55;;
20170;SDS011;10245;51.344;6.620;2022-10-31T14:07:47;10.50;;;5.38;;
20170;SDS011;10245;51.344;6.620;2022-10-31T14:10:19;11.55;;;5.43;;
20170;SDS011;10245;51.344;6.620;2022-10-31T14:12:47;11.85;;;4.95;;
20170;SDS011;10245;51.344;6.620;2022-10-31T14:15:13;13.85;;;4.93;;
20170;SDS011;10245;51.344;6.620;2022-10-31T14:17:44;9.23;;;4.68;;
20170;SDS011;10245;51.344;6.620;2022-10-31T14:23:09;12.85;;;5.65;;
20170;SDS011;10245;51.344;6.620;2022-10-31T14:25:35;14.23;;;5.20;;
20170;SDS011;10245;51.344;6.620;2022-10-31T14:28:00;12.10;;;5.00;;
20170;SDS011;10245;51.344;6.620;2022-10-31T14:30:28;12.52;;;5.10;;
20170;SDS011;10245;51.344;6.620;2022-10-31T14:32:53;14.88;;;5.22;;
20170;SDS011;10245;51.344;6.620;2022-10-31T14:35:21;11.38;;;4.97;;
20170;SDS011;10245;51.344;6.620;2022-10-31T14:38:06;18.35;;;5.13;;
20170;SDS011;10245;51.344;6.620;2022-10-31T14:41:08;11.02;;;4.45;;
20170;SDS011;10245;51.344;6.620;2022-10-31T14:44:00;13.23;;;4.97;;
20170;SDS011;10245;51.344;6.620;2022-10-31T14:46:54;11.82;;;5.03;;
20170;SDS011;10245;51.344;6.620;2022-10-31T14:49:28;14.50;;;5.22;;
20170;SDS011;10245;51.344;6.620;2022-10-31T14:52:12;10.60;;;4.80;;
20170;SDS011;10245;51.344;6.620;2022-10-31T14:54:41;13.98;;;5.15;;